ADVERTISEMENT

iOS app on App Store Android app on Google Play

2016 \ San Dimas Turkey Trot - November 19, 2016

Notes Pages Download Filter By
  [1] 2 3 4 5




Keyword Exact  
Division

Bib Division Last Name First Name Division Place Gun Chip Overall City State
2656 16-19 Male Ramirez Daniel 1 00:18:14 00:18:14 1 Alhambra CA
2652 16-19 Male Frias Justin 2 00:18:21 00:18:19 2 Temple City CA
2258 16-19 Male Williams Matthew 3 00:18:37 00:18:36 3 Temple City CA
2682 16-19 Male Lim Brenner 4 00:19:03 00:19:01 4 El Monte CA
2166 45-49 Male Herrera Michael 1 00:19:38 00:19:37 5 Whittier CA
2460 16-19 Male Johnson Milan 5 00:20:33 00:20:01 6 Fontana CA
2418 55-59 Male Vega Martin 1 00:21:15 00:21:14 7 Montebello CA
2683 16-19 Male Vuong James 6 00:21:35 00:21:34 8 El Monte CA
2355 14-15 Male Siwiecki Joseph 1 00:21:51 00:21:51 9 Whittier CA
2619 40-44 Male Smith Jeff 1 00:22:00 00:21:56 10 Orange CA
2552 12-13 Male Amarillas Christopher 1 00:22:57 00:22:55 11 San Dimas CA
2590 12-13 Female Frondoza Abigail-monique 1 00:22:59 00:22:57 12 Anaheim CA
2641 50-54 Male Minyon Tony 1 00:23:23 00:23:22 13 Cerritos CA
2684 16-19 Male Tran Steve 7 00:23:45 00:23:43 14 Baldwin Park CA
2628 14-15 Male Gonzalez Brandon 2 00:23:49 00:23:47 15 La Verne CA
2409 30-34 Female Oakes Jeanelle 1 00:23:53 00:23:50 16 Rancho Cucamonga CA
2610 50-54 Male Wood Joey 2 00:23:59 00:23:57 17 Baldwin Park CA
2680 35-39 Male Dan Richard 1 00:24:12 00:23:12 18 Whitttier CA
1372 30-34 Female Besheer Rebecca 2 00:24:33 00:24:28 19 San Bernardino CA
1373 30-34 Male Besheer Jerred 1 00:24:33 00:24:28 20 San Bernardino CA
2472 45-49 Female Kobayashi Hiroko 1 00:24:47 00:24:14 21 West Covina CA
2672 40-44 Male Schober Toland 2 00:24:49 00:24:48 22 La Canada CA
2434 16-19 Female Mcbean Ashley 1 00:25:03 00:24:10 23 Las Flores CA
2282 16-19 Male Riggs Aiden 8 00:25:38 00:25:04 24 Glendora CA
2408 30-34 Female Peterson Natalie 3 00:25:53 00:25:50 25 Garden Grove CA
2671 12-13 Male De La O Marcos 2 00:25:57 00:25:51 26 Monrovia CA
2284 45-49 Male Walters Andrew 2 00:26:15 00:25:40 27 Glendora CA
2479 35-39 Male Pelot Tim 2 00:26:21 00:26:18 28 Orange CA
2630 14-15 Male Julian Logan 3 00:26:23 00:26:20 29 La Verne CA
2691 25-29 Female Stanford Summer 1 00:26:47 00:26:37 30 Walnut CA
2509 20-24 Female Lopez Amanda 1 00:26:55 00:26:22 31 Los Angeles CA
2693 30-34 Female Tyler Rachel 4 00:26:56 00:26:37 32 San Dimas CA
2441 30-34 Male Rodriguez Sergio 2 00:27:22 00:26:41 33 Irwindale CA
2557 45-49 Female Gomez Odbulia 2 00:27:23 00:27:20 34 Irwindale CA
2694 20-24 Female Bletcher Tara 2 00:27:23 00:27:12 35 Upland CA
2620 10-11 Male Smith Noah 1 00:27:25 00:27:21 36 Orange CA
2275 20-24 Female Grisanzio Christina 3 00:27:36 00:27:06 37 Claremont CA
2274 20-24 Female Stahr Lydia 4 00:27:36 00:27:07 38 Newport Beach CA
1953 65-69 Male Flores Refugio 1 00:27:41 00:27:35 39 Irwindale CA
2478 30-34 Female Pelot Jaclyn 5 00:27:46 00:27:43 40 Orange CA
2695 20-24 Female Meeks Sarah 5 00:28:02 00:27:44 41 San Dimas CA
2286 40-44 Male Hernandez John S 3 00:28:06 00:27:03 42 Fontana CA
2576 25-29 Female Williams Stephanie 2 00:28:14 00:27:56 43 Torrance CA
2281 35-39 Female Craine Lindsay 1 00:28:17 00:27:45 44 Los Angeles CA
2404 50-54 Female Clark Christine 1 00:28:20 00:28:12 45 Covina CA
2353 45-49 Female Siwiecki Tami 3 00:28:20 00:28:13 46 Whittier CA
2291 6-7 Male Ward Mason 1 00:28:35 00:28:26 47 Placentia CA
2506 25-29 Male Rodriguez Phillip Adrian 1 00:28:38 00:27:35 48 Orange CA
2605 30-34 Male Lau Jeffrey 3 00:28:39 00:28:01 49 Hacienda Heights CA
1969 30-34 Female Lopez Jennifer 6 00:28:40 00:27:25 50 Pasadena CA
2421 20-24 Female Inouye Monica 6 00:28:41 00:28:19 51 Pomona CA
2618 8-9 Male Smith Hunter 1 00:28:47 00:28:43 52 Orange CA
2288 6-7 Male Hernandez Leonidas B 2 00:28:54 00:27:51 53 Fontana CA
1371 10-11 Male Duran Brandon 2 00:29:07 00:28:07 54 Chino CA
2354 16-19 Female Siwiecki Sara 2 00:29:12 00:29:05 55 Whittier CA
2608 30-34 Male Sato Scott 4 00:29:22 00:29:09 56 Tustin CA
1423 50-54 Male Peltier Steven 3 00:29:23 00:28:03 57
2371 40-44 Male Sethuraman Uma 4 00:29:25 00:27:54 58 Irvine CA
2255 40-44 Male Trujillo Mike 5 00:29:26 00:29:19 59 Lakewood CA
2372 30-34 Male Robb Matt 5 00:29:26 00:27:58 60 Irvine CA
2412 25-29 Male Gonzales Nicholas 2 00:29:40 00:29:24 61 Costa Mesa CA
2665 40-44 Male Mendez Hector 6 00:29:53 00:29:31 62 Corona CA
2594 8-9 Female Reger Malaia 1 00:29:58 00:29:00 63 Chino Hills CA
2593 40-44 Male Reger Josh 7 00:29:59 00:29:01 64 Chino Hills CA
2430 35-39 Female Chung Nancy 2 00:30:04 00:29:13 65 West Covina CA
2663 45-49 Male Campos Rob 3 00:30:16 00:28:51 66 North Hollywood CA
2468 40-44 Female Lutes Kelly 1 00:30:18 00:30:02 67 Yorba Linda CA
2575 30-34 Male Black Rob 6 00:30:23 00:30:06 68 Buena Park CA
2583 45-49 Male Echavarri Richard 4 00:30:32 00:30:08 69 Pomona CA
2447 55-59 Male Rodriguez Noe 2 00:30:39 00:30:33 70 Irwindale CA
2498 35-39 Female Guth Kristin 3 00:30:41 00:30:34 71 Brea CA
2553 35-39 Male Munoz Jesus 3 00:30:43 00:30:37 72 La Puente CA
1368 12-13 Female Pluma Olivia 2 00:30:46 00:29:46 73 Chino Hills CA
1420 10-11 Female York Jayden 1 00:30:46 00:29:46 74
2406 50-54 Male Yamada James 4 00:31:02 00:30:10 75 San Dimas CA
2563 40-44 Male Broadway Cullen 8 00:31:06 00:30:29 76 Walnut CA
2417 30-34 Male Bustos Richard 7 00:31:06 00:30:54 77 Pomona CA
2416 35-39 Female Perez Susan 4 00:31:07 00:30:55 78 Pico Rivera CA
2642 20-24 Male Minyon Nicholas 1 00:31:09 00:31:08 79 Cerritos CA
2420 55-59 Male Inouye Glen 3 00:31:11 00:30:48 80 Pomona CA
1422 25-29 Male Peltier Sean 3 00:31:12 00:29:54 81
2668 45-49 Female De La O Claudia 4 00:31:32 00:31:26 82 Monrovia CA
2690 16-19 Female Gharabeg Lia 3 00:31:32 00:31:10 83 Glendale CA
2103 45-49 Male Vargas David 5 00:31:35 00:30:42 84 Lakewood CA
2551 40-44 Male Carranza Fredi 9 00:31:45 00:31:38 85 Los Angeles CA
2455 60-64 Male Corona Francisco 1 00:31:45 00:31:38 86 El Monte CA
2181 50-54 Male Alvarez Michael 5 00:32:01 00:31:15 87 Covina CA
2621 60-64 Male Perez Peter 2 00:32:05 00:31:11 88 Colton CA
2168 35-39 Female Brar Sadhana 5 00:32:12 00:31:12 89 La Canada CA
2261 50-54 Female Yee Daphne 2 00:32:27 00:31:34 90 Irwindale CA
2591 30-34 Female Lindenstein Nicole 7 00:32:32 00:32:22 91 Irvine CA
2646 40-44 Female Wu Karen 2 00:32:50 00:31:54 92 Rancho Cucamonga CA
2257 12-13 Female Burman Analisa 3 00:32:51 00:32:36 93 Chino CA
2251 14-15 Female Le Jasmine 1 00:32:52 00:32:05 94 Fontana CA
2507 60-64 Male Santos Carlos 3 00:33:04 00:31:33 95 Rancho Cucamonga CA
2587 35-39 Female Scholfield Lissethe 6 00:33:06 00:32:29 96 Azusa CA
2650 40-44 Female Foster Paige 3 00:33:08 00:32:37 97 Laguna Niguel CA
2609 55-59 Female Jaramillo Judy 1 00:33:12 00:33:10 98 La Verne CA
2502 30-34 Female Rodriquez Joelle 8 00:33:14 00:32:31 99 Montebello CA
2625 50-54 Male Martinez Henry 6 00:33:17 00:33:02 100 West Covina CA
Notes Pages Download Filter By
  [1] 2 3




Keyword Exact  
Division

Bib Division Last Name First Name Division Place Chip Overall City State
611 16-19 Male Landsberg Jacob 1 00:38:38 1 Claremont CA
768 25-29 Male Heron Kyle 1 00:38:51 2 Carlsbad CA
602 50-54 Male Cordero Hector 1 00:39:32 3 Baldwin Park CA
637 20-24 Male Flores Pablo 1 00:39:51 4 Santa Ana CA
638 20-24 Male Ross Frank 2 00:40:01 5 Los Alamitos CA
612 30-34 Male Saludes David 1 00:39:59 6 Nuevo CA
610 16-19 Male Reisch Liam 2 00:40:39 7 Claremont CA
774 40-44 Male Terrill Harry 1 00:43:13 8 Monrovia CA
619 45-49 Male De La O George 1 00:44:22 9 Monrovia CA
969 16-19 Male Hoffman Ryan 3 00:43:41 10 Rancho Cucamonga CA
961 40-44 Male Dellis Shawn 2 00:44:38 11 Pasadena CA
588 50-54 Female Human Margaret 1 00:45:17 12 Yorba Linda CA
767 25-29 Female Heron Rosalind 1 00:45:26 13 Carlsbad CA
579 25-29 Male Panis Brenden 2 00:45:37 14 Orange CA
582 50-54 Male Thacher Andrew 2 00:46:50 15 San Diego CA
860 35-39 Male Nunn Jack 1 00:46:02 16 Manhattan Beach CA
736 35-39 Male Calderon Ryan 2 00:47:54 17 Ladera Ranch CA
636 25-29 Female Lei Sarah 2 00:48:19 18 Jonschwil
560 40-44 Male Spicer Scott 3 00:49:03 19 Chino CA
1177 30-34 Male Nava Mike 2 00:48:03 20 Glendora CA
744 35-39 Female Hogerheiden Megan 1 00:49:45 21 La Verne CA
650 40-44 Male Hart Matt 4 00:50:06 22 Orange CA
626 14-15 Male Badillo Jacob 1 00:50:06 23 Santa Fe Springs CA
613 60-64 Male Saludes Steven 1 00:50:20 24 Stanton CA
1382 14-15 Female Cortes Camille 1 00:51:11 25
642 25-29 Male Arnold Kainoah 3 00:51:06 26 Torrance CA
641 20-24 Female Arnold Justine 1 00:51:07 27 Torrance CA
1411 20-24 Female Wong Josephine 2 00:51:07 28
772 35-39 Male Estrada Jaime 3 00:51:37 29 Rancho Cucamonga CA
718 65-69 Male Torres Christopher 1 00:51:34 30 Mission Viejo CA
735 25-29 Female Groarke Fiona 3 00:52:05 31 Rancho Cucamonga CA
762 30-34 Male Adams Jake 3 00:52:03 32 Chino Hills CA
562 30-34 Male Lew Justin 4 00:52:12 33 Monterey Park CA
575 30-34 Male Grinde James 5 00:52:07 34 Lakewood CA
2438 16-19 Female Mcbean Breanna 1 00:51:49 35 Rancho Santa Margari CA
1162 40-44 Female Elftman Jennifer 1 00:52:25 36 La Verne CA
960 25-29 Male Sandoval Jesus 4 00:52:50 37 Santa Ana CA
1161 40-44 Female Stephens Monica 2 00:53:05 38 Fullerton CA
751 60-64 Male Leung Albert 2 00:53:09 39 Mission Viejo CA
739 40-44 Male Teh Danny 5 00:53:16 40 Brea CA
707 35-39 Male Villicana Angel 4 00:53:23 41 Pomona CA
713 60-64 Female Holzman-little Carrie 1 00:53:52 42 Pasadena CA
980 30-34 Male Toth Chad 6 00:53:13 43 Riverside CA
966 30-34 Male Hooper Jeremiah 7 00:53:22 44 La Verne CA
644 35-39 Male Ertel Geoff 5 00:53:52 45 Los Angeles CA
725 50-54 Female Allen Paula 2 00:54:02 46 Brea CA
965 45-49 Male Sharer Rodger 2 00:53:27 47 Whittier CA
634 30-34 Male Colk David 8 00:54:48 48 Lakewood CA
649 35-39 Male Estrada Ernest 6 00:54:46 49 Irwindale CA
712 45-49 Male Wilcox Steve 3 00:54:47 50 Fullerton CA
624 30-34 Male Heredia Claudio 9 00:55:01 51 Santa Fe Springs CA
802 35-39 Female Arthurs Tammy 2 00:55:15 52 Aliso Viejo CA
620 35-39 Male Gordon Enrique 7 00:55:33 53 El Monte CA
795 55-59 Female Albanes Carmen 1 00:55:15 54 Castaic CA
598 45-49 Female Lopez Monica 1 00:55:19 55 Los Angeles CA
727 50-54 Female Howland Suzanne 3 00:55:31 56 Brea CA
967 35-39 Female Veliz Nancy 3 00:55:19 57 La Verne CA
607 45-49 Male Oftelie Eddie 4 00:56:03 58 Ontario CA
1152 45-49 Male Kasper Douglas 5 00:54:37 59 Pomona CA
857 50-54 Male Jarvis Jeff 3 00:55:31 60 Benicia CA
962 35-39 Male Mcintosh August 8 00:55:15 61 Redlands CA
585 25-29 Male Murillo George 5 00:55:26 62 Bloomington CA
1166 60-64 Male Southworth Park 3 00:56:29 63 La Verne CA
1171 35-39 Female Gomez Stephanie 4 00:56:19 64 Pomona CA
722 50-54 Male Howard Todd 4 00:56:18 65 Hesperia CA
734 40-44 Male Ruenprom Phillip 6 00:56:59 66 Covina CA
788 35-39 Female Mccrary Kimberly 5 00:57:24 67 Newbury Park CA
558 40-44 Male Wong Keith 7 00:56:52 68 Irwindale CA
574 25-29 Male Herrera Salvador 6 00:57:53 69 Long Beach CA
557 40-44 Male Alcala Albert 8 00:57:56 70 Ontario CA
1409 30-34 Female Wright Natalie 1 00:57:38 71
573 30-34 Male Jimenez Marcus 10 00:58:23 72 El Monte CA
789 45-49 Male Caldera Philip 6 00:58:23 73 Fontana CA
756 40-44 Female Ruiz Patricia 3 00:58:17 74 Los Angeles CA
643 30-34 Female Dinkle Jenna 2 00:58:32 75 Los Angeles CA
603 55-59 Male Rosenbrock Darrell 1 00:58:45 76 Chino Hills CA
1187 40-44 Female De La Cruz Jennifer 4 00:57:58 77 Claremont CA
577 25-29 Male Bethencourt Austin 7 00:59:07 78 Glendora CA
701 40-44 Male Zimmerman Kenneth 9 00:58:23 79 Lake Forest CA
553 40-44 Female Power Anita 5 00:59:54 80 Corona CA
749 12-13 Male Centeno Jay 1 00:59:52 81 Chino Hills CA
625 12-13 Male De Pano Ethan 2 00:59:52 82 Alhambra CA
1183 50-54 Male Hyllengren James 5 00:59:22 83 Glendora CA
985 30-34 Female Kim Hanna 3 00:58:59 84 Los Angeles CA
794 30-34 Female Flores Angelica 4 00:59:08 85 Redlands CA
984 30-34 Female Lucier Jeanetta 5 00:59:24 86 Tustin CA
752 40-44 Male Leedy Brian 10 01:00:25 87 Norco CA
704 40-44 Female Basgall Cassandra 6 01:01:19 88 Torrance CA
646 35-39 Male Batres Juan 9 01:00:37 89 Claremont CA
633 30-34 Female Rollins Cynthia 6 01:01:35 90 Orange CA
1158 16-19 Female Inouye Andrea 2 01:01:43 91 Pomona CA
551 40-44 Female Mena Sandra 7 01:02:02 92 Chula Vista CA
757 45-49 Male Matsumoto Daizo 7 01:01:30 93 Azusa CA
552 60-64 Male Suarez Jesus 4 01:02:28 94 Irwindale CA
792 40-44 Female Barrios Rocio 8 01:02:15 95 West Covina CA
589 50-54 Male Messa Angelo 6 01:01:48 96 Chino CA
755 50-54 Female Avila Laura 4 01:02:40 97 Whittier CA
782 45-49 Male Mulcahy Ben 8 01:02:33 98 Los Angeles CA
578 50-54 Female Scharf Melinda 5 01:02:27 99 Orange CA
1180 50-54 Female Vargas Silvia 6 01:02:00 100 Lakewood CA
Notes Pages Download Filter By
 




Keyword Exact  
Division

Bib Division Last Name First Name Division Place Chip Overall City State
3158 Boys Hill Langston 1 00:00:00 1 Upland CA
3151 Boys Scales Joseph 2 00:00:00 2 Pasadena CA
3180 Boys Pelot Tyler 3 00:00:00 3 Orange CA
1353 Boys Ortega Logan 4 00:00:00 4 Fountain Valley CA
3170 Boys Nearhoff Liam 5 00:00:00 5 Glendora CA
3165 Boys Simeon-morales Erick 6 00:00:00 6 West Covina CA
3193 Boys Arthurs Henry 7 00:00:00 7 Aliso Viejo CA
3182 Girls Kania Kasia 1 00:00:00 8 Diamond Bar CA
3164 Boys Hoffman Liam 8 00:00:00 9 Monterey Park CA
3168 Girls Dela Cruz Arianna 2 00:00:00 10 Chino Hills CA
3174 Girls Garcia Madelynn 3 00:00:00 11 San Dimas CA
3192 Boys Arthurs Charlie 9 00:00:00 12 Aliso Viejo CA
1351 Boys Wright Luke 10 00:00:00 13 Glendora CA
3153 Girls Harris Zoe 4 00:00:00 14 Alta Loma CA
1352 Boys Wright Evan 11 00:00:00 15 Glendora CA
3177 Boys Taylor Samuel 12 00:00:00 16 Chino CA
3172 Boys Estrada Coleton 13 00:00:00 17 Rancho Cucamonga CA
3157 Girls Hill Averie-maye 5 00:00:00 18 Upland CA
3181 Boys Heppner Max 14 00:00:00 19 Glendora CA
3183 Girls Mangali Ella 6 00:00:00 20 Orange CA
3169 Girls Nearhoff Kerry 7 00:00:00 21 Glendora CA
3173 Girls Dozier Shyann 8 00:00:00 22 Hesperia CA
3167 Girls Moreno Kira 9 00:00:00 23 La Verne CA
3171 Boys Estrada Wyatt 15 00:00:00 24 Rancho Cucamonga CA
3184 Boys Texidor Andres 16 00:00:00 25 Claremont CA
3166 Girls Moreno Kayti 10 00:00:00 26 La Verne CA
3160 Girls Peel Faith 11 00:00:00 27 Menifee CA
3179 Girls Pelot Alyson 12 00:00:00 28 Orange CA
3176 Girls Peel Hope 13 00:00:00 29 Menifee CA
3152 Boys Tyler Trevor 17 00:00:00 30 San Dimas CA
3191 Boys Tyler Aaron 18 00:00:00 31
3175 Boys Vasquez Remy 19 00:00:00 32 Huntington Park CA
3156 Girls Ward Makenna 14 00:00:00 33 Placentia CA